sensor_id;sensor_type;location;lat;lon;timestamp;temperature;humidity
56076;DHT22;41951;49.022;12.066;2024-03-02T00:02:24;6.50;99.90
56076;DHT22;41951;49.022;12.066;2024-03-02T00:04:51;6.50;99.90
56076;DHT22;41951;49.022;12.066;2024-03-02T00:07:17;6.50;99.90
56076;DHT22;41951;49.022;12.066;2024-03-02T00:09:43;6.50;99.90
56076;DHT22;41951;49.022;12.066;2024-03-02T00:12:11;6.50;99.90
56076;DHT22;41951;49.022;12.066;2024-03-02T00:14:39;6.50;99.90
56076;DHT22;41951;49.022;12.066;2024-03-02T00:17:17;6.50;99.90
56076;DHT22;41951;49.022;12.066;2024-03-02T00:19:46;6.50;99.90
56076;DHT22;41951;49.022;12.066;2024-03-02T00:22:12;6.50;99.90
56076;DHT22;41951;49.022;12.066;2024-03-02T00:24:39;6.50;99.90
56076;DHT22;41951;49.022;12.066;2024-03-02T00:27:07;6.50;99.90
56076;DHT22;41951;49.022;12.066;2024-03-02T00:29:32;7.20;99.90
56076;DHT22;41951;49.022;12.066;2024-03-02T00:32:01;6.50;99.90
56076;DHT22;41951;49.022;12.066;2024-03-02T00:34:26;6.50;99.90
56076;DHT22;41951;49.022;12.066;2024-03-02T00:36:52;6.50;99.90
56076;DHT22;41951;49.022;12.066;2024-03-02T00:39:18;6.50;99.90
56076;DHT22;41951;49.022;12.066;2024-03-02T00:41:44;6.60;99.90
56076;DHT22;41951;49.022;12.066;2024-03-02T00:44:12;6.50;99.90
56076;DHT22;41951;49.022;12.066;2024-03-02T00:46:39;6.50;99.90
56076;DHT22;41951;49.022;12.066;2024-03-02T00:49:25;6.50;99.90
56076;DHT22;41951;49.022;12.066;2024-03-02T00:51:53;6.50;99.90
56076;DHT22;41951;49.022;12.066;2024-03-02T00:56:47;6.50;99.90
56076;DHT22;41951;49.022;12.066;2024-03-02T00:59:13;6.40;99.90
56076;DHT22;41951;49.022;12.066;2024-03-02T01:01:39;6.40;99.90
56076;DHT22;41951;49.022;12.066;2024-03-02T01:04:04;6.40;99.90
56076;DHT22;41951;49.022;12.066;2024-03-02T01:06:30;6.40;99.90
56076;DHT22;41951;49.022;12.066;2024-03-02T01:08:56;6.40;99.90
56076;DHT22;41951;49.022;12.066;2024-03-02T01:11:25;6.40;99.90
56076;DHT22;41951;49.022;12.066;2024-03-02T01:13:51;6.40;99.90
56076;DHT22;41951;49.022;12.066;2024-03-02T01:16:17;6.40;99.90
56076;DHT22;41951;49.022;12.066;2024-03-02T01:18:43;6.40;99.90
56076;DHT22;41951;49.022;12.066;2024-03-02T01:21:09;6.40;99.90
56076;DHT22;41951;49.022;12.066;2024-03-02T01:23:35;6.40;99.90
56076;DHT22;41951;49.022;12.066;2024-03-02T01:26:00;6.40;99.90
56076;DHT22;41951;49.022;12.066;2024-03-02T01:28:26;6.40;99.90
56076;DHT22;41951;49.022;12.066;2024-03-02T01:30:51;6.30;99.90
56076;DHT22;41951;49.022;12.066;2024-03-02T01:33:20;6.40;99.90
56076;DHT22;41951;49.022;12.066;2024-03-02T01:35:45;6.40;99.90
56076;DHT22;41951;49.022;12.066;2024-03-02T01:38:11;6.40;99.90
56076;DHT22;41951;49.022;12.066;2024-03-02T01:40:37;6.40;99.90
56076;DHT22;41951;49.022;12.066;2024-03-02T01:43:06;6.40;99.90
56076;DHT22;41951;49.022;12.066;2024-03-02T01:45:33;6.40;99.90
56076;DHT22;41951;49.022;12.066;2024-03-02T01:47:58;6.40;99.90
56076;DHT22;41951;49.022;12.066;2024-03-02T01:50:29;6.40;99.90
56076;DHT22;41951;49.022;12.066;2024-03-02T01:52:56;6.40;99.90
56076;DHT22;41951;49.022;12.066;2024-03-02T01:55:21;6.40;99.90
56076;DHT22;41951;49.022;12.066;2024-03-02T01:57:50;6.40;99.90
56076;DHT22;41951;49.022;12.066;2024-03-02T02:00:17;6.40;99.90
56076;DHT22;41951;49.022;12.066;2024-03-02T02:02:44;6.40;99.90
56076;DHT22;41951;49.022;12.066;2024-03-02T02:05:10;6.40;99.90
56076;DHT22;41951;49.022;12.066;2024-03-02T02:07:36;6.40;99.90
56076;DHT22;41951;49.022;12.066;2024-03-02T02:10:02;6.40;99.90
56076;DHT22;41951;49.022;12.066;2024-03-02T02:12:27;6.40;99.90
56076;DHT22;41951;49.022;12.066;2024-03-02T02:14:53;6.40;99.90
56076;DHT22;41951;49.022;12.066;2024-03-02T02:17:19;6.40;99.90
56076;DHT22;41951;49.022;12.066;2024-03-02T02:19:44;6.40;99.90
56076;DHT22;41951;49.022;12.066;2024-03-02T02:22:10;6.40;99.90
56076;DHT22;41951;49.022;12.066;2024-03-02T02:24:40;6.50;99.90
56076;DHT22;41951;49.022;12.066;2024-03-02T02:27:06;6.40;99.90
56076;DHT22;41951;49.022;12.066;2024-03-02T02:29:32;6.40;99.90
56076;DHT22;41951;49.022;12.066;2024-03-02T02:31:57;6.40;99.90
56076;DHT22;41951;49.022;12.066;2024-03-02T02:34:23;6.40;99.90
56076;DHT22;41951;49.022;12.066;2024-03-02T02:36:49;6.40;99.90
56076;DHT22;41951;49.022;12.066;2024-03-02T02:39:16;7.20;99.90
56076;DHT22;41951;49.022;12.066;2024-03-02T02:41:42;6.40;99.90
56076;DHT22;41951;49.022;12.066;2024-03-02T02:44:08;6.40;99.90
56076;DHT22;41951;49.022;12.066;2024-03-02T02:46:33;6.40;99.90
56076;DHT22;41951;49.022;12.066;2024-03-02T02:48:59;6.40;99.90
56076;DHT22;41951;49.022;12.066;2024-03-02T02:51:25;6.40;99.90
56076;DHT22;41951;49.022;12.066;2024-03-02T02:53:53;6.50;99.90
56076;DHT22;41951;49.022;12.066;2024-03-02T02:56:18;6.40;99.90
56076;DHT22;41951;49.022;12.066;2024-03-02T02:58:44;6.40;99.90
56076;DHT22;41951;49.022;12.066;2024-03-02T03:01:10;6.50;99.90
56076;DHT22;41951;49.022;12.066;2024-03-02T03:03:36;6.40;99.90
56076;DHT22;41951;49.022;12.066;2024-03-02T03:06:01;6.50;99.90
56076;DHT22;41951;49.022;12.066;2024-03-02T03:08:27;6.50;99.90
56076;DHT22;41951;49.022;12.066;2024-03-02T03:10:53;6.50;99.90
56076;DHT22;41951;49.022;12.066;2024-03-02T03:13:18;6.40;99.90
56076;DHT22;41951;49.022;12.066;2024-03-02T03:15:44;6.40;99.90
56076;DHT22;41951;49.022;12.066;2024-03-02T03:18:10;6.40;99.90
56076;DHT22;41951;49.022;12.066;2024-03-02T03:20:38;6.40;99.90
56076;DHT22;41951;49.022;12.066;2024-03-02T03:23:04;6.50;99.90
56076;DHT22;41951;49.022;12.066;2024-03-02T03:25:30;6.50;99.90
56076;DHT22;41951;49.022;12.066;2024-03-02T03:27:55;6.50;99.90
56076;DHT22;41951;49.022;12.066;2024-03-02T03:30:21;6.50;99.90
56076;DHT22;41951;49.022;12.066;2024-03-02T03:32:47;6.50;99.90
56076;DHT22;41951;49.022;12.066;2024-03-02T03:35:13;6.40;99.90
56076;DHT22;41951;49.022;12.066;2024-03-02T03:37:40;6.50;99.90
56076;DHT22;41951;49.022;12.066;2024-03-02T03:40:06;6.50;99.90
56076;DHT22;41951;49.022;12.066;2024-03-02T03:42:35;6.50;99.90
56076;DHT22;41951;49.022;12.066;2024-03-02T03:45:01;6.50;99.90
56076;DHT22;41951;49.022;12.066;2024-03-02T03:47:27;6.50;99.90
56076;DHT22;41951;49.022;12.066;2024-03-02T03:49:53;6.50;99.90
56076;DHT22;41951;49.022;12.066;2024-03-02T03:52:18;6.50;99.90
56076;DHT22;41951;49.022;12.066;2024-03-02T03:54:44;6.50;99.90
56076;DHT22;41951;49.022;12.066;2024-03-02T03:57:10;6.50;99.90
56076;DHT22;41951;49.022;12.066;2024-03-02T03:59:35;6.50;99.90
56076;DHT22;41951;49.022;12.066;2024-03-02T04:02:03;6.40;99.90
56076;DHT22;41951;49.022;12.066;2024-03-02T04:04:29;6.40;99.90
56076;DHT22;41951;49.022;12.066;2024-03-02T04:06:54;6.40;99.90
56076;DHT22;41951;49.022;12.066;2024-03-02T04:09:20;6.40;99.90
56076;DHT22;41951;49.022;12.066;2024-03-02T04:11:45;6.40;99.90
56076;DHT22;41951;49.022;12.066;2024-03-02T04:14:11;6.30;99.90
56076;DHT22;41951;49.022;12.066;2024-03-02T04:16:38;6.40;99.90
56076;DHT22;41951;49.022;12.066;2024-03-02T04:19:04;6.40;99.90
56076;DHT22;41951;49.022;12.066;2024-03-02T04:21:30;6.30;99.90
56076;DHT22;41951;49.022;12.066;2024-03-02T04:23:55;6.30;99.90
56076;DHT22;41951;49.022;12.066;2024-03-02T04:26:25;6.30;99.90
56076;DHT22;41951;49.022;12.066;2024-03-02T04:28:51;6.30;99.90
56076;DHT22;41951;49.022;12.066;2024-03-02T04:31:17;6.30;99.90
56076;DHT22;41951;49.022;12.066;2024-03-02T04:33:43;6.30;99.90
56076;DHT22;41951;49.022;12.066;2024-03-02T04:36:09;6.30;99.90
56076;DHT22;41951;49.022;12.066;2024-03-02T04:38:38;6.40;99.90
56076;DHT22;41951;49.022;12.066;2024-03-02T04:41:05;6.40;99.90
56076;DHT22;41951;49.022;12.066;2024-03-02T04:43:34;6.50;99.90
56076;DHT22;41951;49.022;12.066;2024-03-02T04:46:00;6.40;99.90
56076;DHT22;41951;49.022;12.066;2024-03-02T04:48:26;6.40;99.90
56076;DHT22;41951;49.022;12.066;2024-03-02T04:50:52;6.40;99.90
56076;DHT22;41951;49.022;12.066;2024-03-02T04:53:18;6.40;99.90
56076;DHT22;41951;49.022;12.066;2024-03-02T04:55:43;6.40;99.90
56076;DHT22;41951;49.022;12.066;2024-03-02T04:58:09;6.40;99.90
56076;DHT22;41951;49.022;12.066;2024-03-02T05:00:35;6.40;99.90
56076;DHT22;41951;49.022;12.066;2024-03-02T05:03:01;6.50;99.90
56076;DHT22;41951;49.022;12.066;2024-03-02T05:05:27;6.40;99.90
56076;DHT22;41951;49.022;12.066;2024-03-02T05:07:53;6.40;99.90
56076;DHT22;41951;49.022;12.066;2024-03-02T05:10:18;6.40;99.90
56076;DHT22;41951;49.022;12.066;2024-03-02T05:12:44;6.50;99.90
56076;DHT22;41951;49.022;12.066;2024-03-02T05:15:13;6.60;99.90
56076;DHT22;41951;49.022;12.066;2024-03-02T05:17:40;6.50;99.90
56076;DHT22;41951;49.022;12.066;2024-03-02T05:20:06;6.50;99.90
56076;DHT22;41951;49.022;12.066;2024-03-02T05:22:35;6.60;99.90
56076;DHT22;41951;49.022;12.066;2024-03-02T05:25:02;6.70;99.90
56076;DHT22;41951;49.022;12.066;2024-03-02T05:27:28;6.70;99.90
56076;DHT22;41951;49.022;12.066;2024-03-02T05:29:54;6.70;99.90
56076;DHT22;41951;49.022;12.066;2024-03-02T05:32:19;6.70;99.90
56076;DHT22;41951;49.022;12.066;2024-03-02T05:34:45;6.70;99.90
56076;DHT22;41951;49.022;12.066;2024-03-02T05:37:11;6.70;99.90
56076;DHT22;41951;49.022;12.066;2024-03-02T05:39:36;6.60;99.90
56076;DHT22;41951;49.022;12.066;2024-03-02T05:42:02;6.60;99.90
56076;DHT22;41951;49.022;12.066;2024-03-02T05:44:28;6.60;99.90
56076;DHT22;41951;49.022;12.066;2024-03-02T05:46:54;6.60;99.90
56076;DHT22;41951;49.022;12.066;2024-03-02T05:49:19;6.50;99.90
56076;DHT22;41951;49.022;12.066;2024-03-02T05:51:45;6.50;99.90
56076;DHT22;41951;49.022;12.066;2024-03-02T05:54:10;6.50;99.90
56076;DHT22;41951;49.022;12.066;2024-03-02T05:56:36;6.50;99.90
56076;DHT22;41951;49.022;12.066;2024-03-02T05:59:02;6.50;99.90
56076;DHT22;41951;49.022;12.066;2024-03-02T06:01:40;6.50;99.90
56076;DHT22;41951;49.022;12.066;2024-03-02T06:04:06;6.50;99.90
56076;DHT22;41951;49.022;12.066;2024-03-02T06:06:32;6.50;99.90
56076;DHT22;41951;49.022;12.066;2024-03-02T06:08:59;6.50;99.90
56076;DHT22;41951;49.022;12.066;2024-03-02T06:11:25;6.50;99.90
56076;DHT22;41951;49.022;12.066;2024-03-02T06:13:50;6.60;99.90
56076;DHT22;41951;49.022;12.066;2024-03-02T06:16:16;6.60;99.90
56076;DHT22;41951;49.022;12.066;2024-03-02T06:18:41;6.60;99.90
56076;DHT22;41951;49.022;12.066;2024-03-02T06:21:07;6.60;99.90
56076;DHT22;41951;49.022;12.066;2024-03-02T06:23:33;6.70;99.90
56076;DHT22;41951;49.022;12.066;2024-03-02T06:26:00;6.70;99.90
56076;DHT22;41951;49.022;12.066;2024-03-02T06:28:26;6.70;99.90
56076;DHT22;41951;49.022;12.066;2024-03-02T06:30:51;6.70;99.90
56076;DHT22;41951;49.022;12.066;2024-03-02T06:33:17;6.60;99.90
56076;DHT22;41951;49.022;12.066;2024-03-02T06:35:42;6.70;99.90
56076;DHT22;41951;49.022;12.066;2024-03-02T06:38:08;6.60;99.90
56076;DHT22;41951;49.022;12.066;2024-03-02T06:40:34;6.70;99.90
56076;DHT22;41951;49.022;12.066;2024-03-02T06:42:59;6.60;99.90
56076;DHT22;41951;49.022;12.066;2024-03-02T06:45:25;6.70;99.90
56076;DHT22;41951;49.022;12.066;2024-03-02T06:47:50;6.70;99.90
56076;DHT22;41951;49.022;12.066;2024-03-02T06:50:16;6.70;99.90
56076;DHT22;41951;49.022;12.066;2024-03-02T06:52:41;6.70;99.90
56076;DHT22;41951;49.022;12.066;2024-03-02T06:55:07;6.80;99.90
56076;DHT22;41951;49.022;12.066;2024-03-02T06:57:33;6.70;99.90
56076;DHT22;41951;49.022;12.066;2024-03-02T06:59:58;6.80;99.90
56076;DHT22;41951;49.022;12.066;2024-03-02T07:02:27;6.80;99.90
56076;DHT22;41951;49.022;12.066;2024-03-02T07:04:53;6.70;99.90
56076;DHT22;41951;49.022;12.066;2024-03-02T07:07:19;6.80;99.90
56076;DHT22;41951;49.022;12.066;2024-03-02T07:09:45;6.70;99.90
56076;DHT22;41951;49.022;12.066;2024-03-02T07:12:10;6.80;99.90
56076;DHT22;41951;49.022;12.066;2024-03-02T07:14:36;6.80;99.90
56076;DHT22;41951;49.022;12.066;2024-03-02T07:17:20;6.80;99.90
56076;DHT22;41951;49.022;12.066;2024-03-02T07:19:46;6.80;99.90
56076;DHT22;41951;49.022;12.066;2024-03-02T07:22:12;6.80;99.90
56076;DHT22;41951;49.022;12.066;2024-03-02T07:24:41;6.80;99.90
56076;DHT22;41951;49.022;12.066;2024-03-02T07:27:07;6.80;99.90
56076;DHT22;41951;49.022;12.066;2024-03-02T07:29:33;6.90;99.90
56076;DHT22;41951;49.022;12.066;2024-03-02T07:31:59;6.90;99.90
56076;DHT22;41951;49.022;12.066;2024-03-02T07:34:25;6.90;99.90
56076;DHT22;41951;49.022;12.066;2024-03-02T07:36:50;6.90;99.90
56076;DHT22;41951;49.022;12.066;2024-03-02T07:39:19;6.80;99.90
56076;DHT22;41951;49.022;12.066;2024-03-02T07:41:45;6.90;99.90
56076;DHT22;41951;49.022;12.066;2024-03-02T07:44:17;6.80;99.90
56076;DHT22;41951;49.022;12.066;2024-03-02T07:46:45;6.80;99.90
56076;DHT22;41951;49.022;12.066;2024-03-02T07:49:15;6.80;99.90
56076;DHT22;41951;49.022;12.066;2024-03-02T07:51:41;6.10;99.90
56076;DHT22;41951;49.022;12.066;2024-03-02T07:54:06;6.80;99.90
56076;DHT22;41951;49.022;12.066;2024-03-02T07:56:32;6.90;99.90
56076;DHT22;41951;49.022;12.066;2024-03-02T07:58:58;6.90;99.90
56076;DHT22;41951;49.022;12.066;2024-03-02T08:01:30;6.90;99.90
56076;DHT22;41951;49.022;12.066;2024-03-02T08:04:00;6.90;99.90
56076;DHT22;41951;49.022;12.066;2024-03-02T08:06:27;7.00;99.90
56076;DHT22;41951;49.022;12.066;2024-03-02T08:08:56;7.00;99.90
56076;DHT22;41951;49.022;12.066;2024-03-02T08:11:22;7.00;99.90
56076;DHT22;41951;49.022;12.066;2024-03-02T08:13:48;7.00;99.90
56076;DHT22;41951;49.022;12.066;2024-03-02T08:16:15;7.10;99.90
56076;DHT22;41951;49.022;12.066;2024-03-02T08:18:41;7.00;99.90
56076;DHT22;41951;49.022;12.066;2024-03-02T08:21:07;7.10;99.90
56076;DHT22;41951;49.022;12.066;2024-03-02T08:23:34;7.10;99.90
56076;DHT22;41951;49.022;12.066;2024-03-02T08:26:00;7.00;99.90
56076;DHT22;41951;49.022;12.066;2024-03-02T08:28:26;7.00;99.90
56076;DHT22;41951;49.022;12.066;2024-03-02T08:30:51;7.10;99.90
56076;DHT22;41951;49.022;12.066;2024-03-02T08:33:17;7.10;99.90
56076;DHT22;41951;49.022;12.066;2024-03-02T08:35:43;7.10;99.90
56076;DHT22;41951;49.022;12.066;2024-03-02T08:38:08;7.10;99.90
56076;DHT22;41951;49.022;12.066;2024-03-02T08:40:34;7.10;99.90
56076;DHT22;41951;49.022;12.066;2024-03-02T08:43:00;7.20;99.90
56076;DHT22;41951;49.022;12.066;2024-03-02T08:45:25;7.30;99.90
56076;DHT22;41951;49.022;12.066;2024-03-02T08:47:51;7.30;99.90
56076;DHT22;41951;49.022;12.066;2024-03-02T08:50:16;7.40;99.90
56076;DHT22;41951;49.022;12.066;2024-03-02T08:52:42;7.50;99.90
56076;DHT22;41951;49.022;12.066;2024-03-02T08:55:08;7.60;99.90
56076;DHT22;41951;49.022;12.066;2024-03-02T08:57:34;7.60;99.90
56076;DHT22;41951;49.022;12.066;2024-03-02T09:00:00;7.60;99.90
56076;DHT22;41951;49.022;12.066;2024-03-02T09:02:26;7.70;99.90
56076;DHT22;41951;49.022;12.066;2024-03-02T09:04:52;7.70;99.90
56076;DHT22;41951;49.022;12.066;2024-03-02T09:07:18;7.70;99.90
56076;DHT22;41951;49.022;12.066;2024-03-02T09:09:43;7.80;99.90
56076;DHT22;41951;49.022;12.066;2024-03-02T09:12:09;8.00;99.90
56076;DHT22;41951;49.022;12.066;2024-03-02T09:14:36;8.00;99.90
56076;DHT22;41951;49.022;12.066;2024-03-02T09:17:02;8.10;99.90
56076;DHT22;41951;49.022;12.066;2024-03-02T09:19:33;8.10;99.90
56076;DHT22;41951;49.022;12.066;2024-03-02T09:21:58;8.20;99.90
56076;DHT22;41951;49.022;12.066;2024-03-02T09:24:24;8.20;99.90
56076;DHT22;41951;49.022;12.066;2024-03-02T09:26:50;8.20;99.90
56076;DHT22;41951;49.022;12.066;2024-03-02T09:29:15;8.20;99.90
56076;DHT22;41951;49.022;12.066;2024-03-02T09:31:41;8.20;99.90
56076;DHT22;41951;49.022;12.066;2024-03-02T09:34:07;8.20;99.90
56076;DHT22;41951;49.022;12.066;2024-03-02T09:36:33;8.20;99.90
56076;DHT22;41951;49.022;12.066;2024-03-02T09:38:59;8.20;99.90
56076;DHT22;41951;49.022;12.066;2024-03-02T09:41:25;8.30;99.90
56076;DHT22;41951;49.022;12.066;2024-03-02T09:43:51;8.30;99.90
56076;DHT22;41951;49.022;12.066;2024-03-02T09:46:17;8.30;99.90
56076;DHT22;41951;49.022;12.066;2024-03-02T09:48:44;8.40;99.90
56076;DHT22;41951;49.022;12.066;2024-03-02T09:51:10;8.40;99.90
56076;DHT22;41951;49.022;12.066;2024-03-02T09:53:36;8.40;99.90
56076;DHT22;41951;49.022;12.066;2024-03-02T09:56:02;8.50;99.90
56076;DHT22;41951;49.022;12.066;2024-03-02T09:58:28;8.60;99.90
56076;DHT22;41951;49.022;12.066;2024-03-02T10:00:54;8.60;99.90
56076;DHT22;41951;49.022;12.066;2024-03-02T10:03:20;8.70;99.90
56076;DHT22;41951;49.022;12.066;2024-03-02T10:05:46;8.70;99.90
56076;DHT22;41951;49.022;12.066;2024-03-02T10:08:12;8.70;99.90
56076;DHT22;41951;49.022;12.066;2024-03-02T10:10:41;8.70;99.90
56076;DHT22;41951;49.022;12.066;2024-03-02T10:13:09;8.80;99.90
56076;DHT22;41951;49.022;12.066;2024-03-02T10:15:36;8.70;99.90
56076;DHT22;41951;49.022;12.066;2024-03-02T10:18:09;8.70;99.90
56076;DHT22;41951;49.022;12.066;2024-03-02T10:20:35;8.70;99.90
56076;DHT22;41951;49.022;12.066;2024-03-02T10:23:12;8.80;99.90
56076;DHT22;41951;49.022;12.066;2024-03-02T10:25:38;8.80;99.90
56076;DHT22;41951;49.022;12.066;2024-03-02T10:28:04;8.80;99.90
56076;DHT22;41951;49.022;12.066;2024-03-02T10:30:33;8.70;99.90
56076;DHT22;41951;49.022;12.066;2024-03-02T10:33:03;8.70;99.90
56076;DHT22;41951;49.022;12.066;2024-03-02T10:35:29;8.80;99.90
56076;DHT22;41951;49.022;12.066;2024-03-02T10:37:59;8.80;99.90
56076;DHT22;41951;49.022;12.066;2024-03-02T10:40:26;8.90;99.90
56076;DHT22;41951;49.022;12.066;2024-03-02T10:42:52;8.90;99.90
56076;DHT22;41951;49.022;12.066;2024-03-02T10:45:19;8.90;99.90
56076;DHT22;41951;49.022;12.066;2024-03-02T10:47:47;9.00;99.90
56076;DHT22;41951;49.022;12.066;2024-03-02T10:50:12;9.60;99.90
56076;DHT22;41951;49.022;12.066;2024-03-02T10:52:38;9.00;99.90
56076;DHT22;41951;49.022;12.066;2024-03-02T10:55:05;9.10;99.90
56076;DHT22;41951;49.022;12.066;2024-03-02T10:57:53;9.20;99.90
56076;DHT22;41951;49.022;12.066;2024-03-02T11:00:20;9.20;99.90
56076;DHT22;41951;49.022;12.066;2024-03-02T11:02:52;9.20;99.90
56076;DHT22;41951;49.022;12.066;2024-03-02T11:05:26;9.30;99.90
56076;DHT22;41951;49.022;12.066;2024-03-02T11:07:57;9.40;99.90
56076;DHT22;41951;49.022;12.066;2024-03-02T11:10:27;9.40;99.90
56076;DHT22;41951;49.022;12.066;2024-03-02T11:13:00;9.30;99.90
56076;DHT22;41951;49.022;12.066;2024-03-02T11:15:27;9.50;99.90
56076;DHT22;41951;49.022;12.066;2024-03-02T11:17:53;9.50;99.90
56076;DHT22;41951;49.022;12.066;2024-03-02T11:20:20;9.50;99.90
56076;DHT22;41951;49.022;12.066;2024-03-02T11:22:46;9.50;99.90
56076;DHT22;41951;49.022;12.066;2024-03-02T11:25:27;9.50;99.90
56076;DHT22;41951;49.022;12.066;2024-03-02T11:33:00;9.60;99.90
56076;DHT22;41951;49.022;12.066;2024-03-02T11:35:28;9.60;99.90
56076;DHT22;41951;49.022;12.066;2024-03-02T11:37:55;9.60;99.90
56076;DHT22;41951;49.022;12.066;2024-03-02T11:40:27;9.60;99.90
56076;DHT22;41951;49.022;12.066;2024-03-02T11:42:54;9.60;99.90
56076;DHT22;41951;49.022;12.066;2024-03-02T11:45:26;9.60;99.90
56076;DHT22;41951;49.022;12.066;2024-03-02T11:47:56;9.50;99.90
56076;DHT22;41951;49.022;12.066;2024-03-02T11:53:08;9.60;99.90
56076;DHT22;41951;49.022;12.066;2024-03-02T11:55:35;9.60;99.90
56076;DHT22;41951;49.022;12.066;2024-03-02T11:58:06;9.70;99.90
56076;DHT22;41951;49.022;12.066;2024-03-02T12:00:32;9.70;99.90
56076;DHT22;41951;49.022;12.066;2024-03-02T12:03:02;9.80;99.90
56076;DHT22;41951;49.022;12.066;2024-03-02T12:05:28;9.80;99.90
56076;DHT22;41951;49.022;12.066;2024-03-02T12:08:02;9.80;99.90
56076;DHT22;41951;49.022;12.066;2024-03-02T12:10:30;9.80;99.90
56076;DHT22;41951;49.022;12.066;2024-03-02T12:13:00;9.70;99.90
56076;DHT22;41951;49.022;12.066;2024-03-02T12:15:28;9.90;99.90
56076;DHT22;41951;49.022;12.066;2024-03-02T12:17:55;10.00;99.90
56076;DHT22;41951;49.022;12.066;2024-03-02T12:20:21;10.00;99.90
56076;DHT22;41951;49.022;12.066;2024-03-02T12:22:52;10.00;99.90
56076;DHT22;41951;49.022;12.066;2024-03-02T12:25:19;10.00;99.90
56076;DHT22;41951;49.022;12.066;2024-03-02T12:27:45;10.10;99.90
56076;DHT22;41951;49.022;12.066;2024-03-02T12:30:14;10.30;99.90
56076;DHT22;41951;49.022;12.066;2024-03-02T12:32:40;10.70;99.90
56076;DHT22;41951;49.022;12.066;2024-03-02T12:35:06;10.90;99.90
56076;DHT22;41951;49.022;12.066;2024-03-02T12:37:32;11.00;99.90
56076;DHT22;41951;49.022;12.066;2024-03-02T12:39:59;10.90;99.90
56076;DHT22;41951;49.022;12.066;2024-03-02T12:42:24;10.70;99.90
56076;DHT22;41951;49.022;12.066;2024-03-02T12:44:53;10.50;99.90
56076;DHT22;41951;49.022;12.066;2024-03-02T12:47:21;10.40;99.90
56076;DHT22;41951;49.022;12.066;2024-03-02T12:49:48;10.30;99.90
56076;DHT22;41951;49.022;12.066;2024-03-02T12:52:14;10.20;99.90
56076;DHT22;41951;49.022;12.066;2024-03-02T12:54:40;10.40;99.90
56076;DHT22;41951;49.022;12.066;2024-03-02T12:57:05;10.60;99.90
56076;DHT22;41951;49.022;12.066;2024-03-02T12:59:31;10.60;99.90
56076;DHT22;41951;49.022;12.066;2024-03-02T13:01:56;10.60;99.90
56076;DHT22;41951;49.022;12.066;2024-03-02T13:04:27;10.60;99.90
56076;DHT22;41951;49.022;12.066;2024-03-02T13:06:55;10.50;99.90
56076;DHT22;41951;49.022;12.066;2024-03-02T13:09:23;10.60;99.90
56076;DHT22;41951;49.022;12.066;2024-03-02T13:11:49;10.60;99.90
56076;DHT22;41951;49.022;12.066;2024-03-02T13:14:15;10.60;99.90
56076;DHT22;41951;49.022;12.066;2024-03-02T13:16:44;10.70;99.90
56076;DHT22;41951;49.022;12.066;2024-03-02T13:19:13;10.70;99.90
56076;DHT22;41951;49.022;12.066;2024-03-02T13:21:39;10.90;99.90
56076;DHT22;41951;49.022;12.066;2024-03-02T13:24:05;11.20;99.90
56076;DHT22;41951;49.022;12.066;2024-03-02T13:26:31;11.40;99.90
56076;DHT22;41951;49.022;12.066;2024-03-02T13:28:57;11.40;99.90
56076;DHT22;41951;49.022;12.066;2024-03-02T13:31:22;11.20;99.90
56076;DHT22;41951;49.022;12.066;2024-03-02T13:33:48;11.10;99.90
56076;DHT22;41951;49.022;12.066;2024-03-02T13:36:14;11.00;99.90
56076;DHT22;41951;49.022;12.066;2024-03-02T13:38:39;11.10;99.90
56076;DHT22;41951;49.022;12.066;2024-03-02T13:41:05;11.00;99.90
56076;DHT22;41951;49.022;12.066;2024-03-02T13:43:30;11.00;99.90
56076;DHT22;41951;49.022;12.066;2024-03-02T13:46:01;11.20;99.90
56076;DHT22;41951;49.022;12.066;2024-03-02T13:48:27;11.50;99.90
56076;DHT22;41951;49.022;12.066;2024-03-02T13:50:53;11.70;99.90
56076;DHT22;41951;49.022;12.066;2024-03-02T13:53:19;11.80;99.90
56076;DHT22;41951;49.022;12.066;2024-03-02T13:55:45;11.80;99.90
56076;DHT22;41951;49.022;12.066;2024-03-02T13:58:11;11.80;99.90
56076;DHT22;41951;49.022;12.066;2024-03-02T14:00:38;11.90;99.90
56076;DHT22;41951;49.022;12.066;2024-03-02T14:03:05;12.00;99.90
56076;DHT22;41951;49.022;12.066;2024-03-02T14:05:31;12.20;99.90
56076;DHT22;41951;49.022;12.066;2024-03-02T14:07:57;12.60;99.90
56076;DHT22;41951;49.022;12.066;2024-03-02T14:10:24;12.30;99.90
56076;DHT22;41951;49.022;12.066;2024-03-02T14:12:50;12.40;99.90
56076;DHT22;41951;49.022;12.066;2024-03-02T14:15:15;12.50;99.90
56076;DHT22;41951;49.022;12.066;2024-03-02T14:17:41;12.30;99.90
56076;DHT22;41951;49.022;12.066;2024-03-02T14:20:08;12.40;99.90
56076;DHT22;41951;49.022;12.066;2024-03-02T14:22:35;12.50;99.90
56076;DHT22;41951;49.022;12.066;2024-03-02T14:25:03;12.70;99.90
56076;DHT22;41951;49.022;12.066;2024-03-02T14:27:28;13.10;99.90
56076;DHT22;41951;49.022;12.066;2024-03-02T14:29:54;13.30;99.90
56076;DHT22;41951;49.022;12.066;2024-03-02T14:32:20;13.40;99.90
56076;DHT22;41951;49.022;12.066;2024-03-02T14:34:45;13.10;99.90
56076;DHT22;41951;49.022;12.066;2024-03-02T14:37:13;12.60;99.90
56076;DHT22;41951;49.022;12.066;2024-03-02T14:39:38;12.30;99.90
56076;DHT22;41951;49.022;12.066;2024-03-02T14:42:04;12.00;99.90
56076;DHT22;41951;49.022;12.066;2024-03-02T14:44:30;11.90;99.90
56076;DHT22;41951;49.022;12.066;2024-03-02T14:46:56;11.70;99.90
56076;DHT22;41951;49.022;12.066;2024-03-02T14:49:24;11.50;99.90
56076;DHT22;41951;49.022;12.066;2024-03-02T14:51:50;11.40;99.90
56076;DHT22;41951;49.022;12.066;2024-03-02T14:54:15;11.40;99.90
56076;DHT22;41951;49.022;12.066;2024-03-02T14:56:41;11.40;99.90
56076;DHT22;41951;49.022;12.066;2024-03-02T14:59:06;11.40;99.90
56076;DHT22;41951;49.022;12.066;2024-03-02T15:01:32;11.50;99.90
56076;DHT22;41951;49.022;12.066;2024-03-02T15:03:58;11.40;99.90
56076;DHT22;41951;49.022;12.066;2024-03-02T15:06:23;11.40;99.90
56076;DHT22;41951;49.022;12.066;2024-03-02T15:08:49;11.30;99.90
56076;DHT22;41951;49.022;12.066;2024-03-02T15:11:15;11.30;99.90
56076;DHT22;41951;49.022;12.066;2024-03-02T15:13:40;11.30;99.90
56076;DHT22;41951;49.022;12.066;2024-03-02T15:16:07;11.20;99.90
56076;DHT22;41951;49.022;12.066;2024-03-02T15:18:32;11.30;99.90
56076;DHT22;41951;49.022;12.066;2024-03-02T15:21:00;11.30;99.90
56076;DHT22;41951;49.022;12.066;2024-03-02T15:23:25;11.20;99.90
56076;DHT22;41951;49.022;12.066;2024-03-02T15:25:51;11.20;99.90
56076;DHT22;41951;49.022;12.066;2024-03-02T15:28:16;11.20;99.90
56076;DHT22;41951;49.022;12.066;2024-03-02T15:30:42;11.20;99.90
56076;DHT22;41951;49.022;12.066;2024-03-02T15:33:07;11.20;99.90
56076;DHT22;41951;49.022;12.066;2024-03-02T15:35:33;11.20;99.90